createdAt,value
2022-10-04T00:01:34.160Z,10.06
2022-10-04T00:04:49.269Z,10.06
2022-10-04T00:07:59.564Z,10.06
2022-10-04T00:11:10.997Z,10.07
2022-10-04T00:14:22.541Z,10.10
2022-10-04T00:17:36.456Z,10.12
2022-10-04T00:21:10.479Z,10.11
2022-10-04T00:24:24.605Z,10.13
2022-10-04T00:27:31.916Z,10.12
2022-10-04T00:30:40.948Z,10.11
2022-10-04T00:33:52.143Z,10.12
2022-10-04T00:36:58.815Z,10.11
2022-10-04T00:40:16.442Z,10.13
2022-10-04T00:43:27.267Z,10.14
2022-10-04T00:46:34.877Z,10.12
2022-10-04T00:49:47.914Z,10.11
2022-10-04T00:52:58.993Z,10.08
2022-10-04T00:56:07.550Z,10.09
2022-10-04T00:59:35.564Z,10.13
2022-10-04T01:02:54.067Z,10.10
2022-10-04T01:06:07.483Z,10.05
2022-10-04T01:09:15.332Z,10.07
2022-10-04T01:12:36.025Z,10.09
2022-10-04T01:15:47.344Z,10.11
2022-10-04T01:18:54.195Z,10.09
2022-10-04T01:22:14.476Z,10.11
2022-10-04T01:25:50.856Z,10.12
2022-10-04T01:29:03.526Z,10.12
2022-10-04T01:32:10.285Z,10.15
2022-10-04T01:35:20.645Z,10.16
2022-10-04T01:38:27.506Z,10.17
2022-10-04T01:41:44.147Z,10.17
2022-10-04T01:45:01.028Z,10.16
2022-10-04T01:48:11.955Z,10.13
2022-10-04T01:51:23.343Z,10.12
2022-10-04T01:54:37.043Z,10.13
2022-10-04T01:57:49.619Z,10.12
2022-10-04T02:01:03.576Z,10.10
2022-10-04T02:04:21.898Z,10.10
2022-10-04T02:07:32.126Z,10.08
2022-10-04T02:10:43.602Z,10.00
2022-10-04T02:13:51.903Z,9.97
2022-10-04T02:17:04.138Z,9.92
2022-10-04T02:20:16.896Z,9.88
2022-10-04T02:23:25.785Z,9.84
2022-10-04T02:26:31.540Z,9.79
2022-10-04T02:29:40.954Z,9.75
2022-10-04T02:32:59.974Z,9.74
2022-10-04T02:36:09.574Z,9.70
2022-10-04T02:39:20.237Z,9.73
2022-10-04T02:42:43.425Z,9.78
2022-10-04T02:45:54.222Z,9.79
2022-10-04T02:49:08.012Z,9.81
2022-10-04T02:52:19.362Z,9.83
2022-10-04T02:55:28.409Z,9.87
2022-10-04T02:58:35.516Z,9.88
2022-10-04T03:01:53.606Z,9.90
2022-10-04T03:05:07.954Z,9.90
2022-10-04T03:08:15.374Z,9.88
2022-10-04T03:11:25.235Z,9.86
2022-10-04T03:14:34.973Z,9.86
2022-10-04T03:17:43.088Z,9.86
2022-10-04T03:20:52.635Z,9.87
2022-10-04T03:24:01.028Z,9.89
2022-10-04T03:27:12.824Z,9.89
2022-10-04T03:30:20.342Z,9.88
2022-10-04T03:33:29.507Z,9.89
2022-10-04T03:36:38.242Z,9.89
2022-10-04T03:39:47.319Z,9.89
2022-10-04T03:42:53.309Z,9.88
2022-10-04T03:46:00.359Z,9.90
2022-10-04T03:49:10.986Z,9.91
2022-10-04T03:52:26.997Z,9.92
2022-10-04T03:55:38.370Z,9.94
2022-10-04T03:58:45.938Z,9.97
2022-10-04T04:02:00.692Z,9.97
2022-10-04T04:05:16.585Z,9.95
2022-10-04T04:08:32.012Z,9.94
2022-10-04T04:11:40.233Z,9.90
2022-10-04T04:14:47.331Z,9.91
2022-10-04T04:17:56.113Z,9.95
2022-10-04T04:21:06.513Z,9.98
2022-10-04T04:24:25.140Z,9.95
2022-10-04T04:27:32.934Z,9.91
2022-10-04T04:30:42.022Z,9.85
2022-10-04T04:33:52.352Z,9.79
2022-10-04T04:37:03.373Z,9.75
2022-10-04T04:40:22.869Z,9.69
2022-10-04T04:43:31.240Z,9.62
2022-10-04T04:46:36.941Z,9.56
2022-10-04T04:49:43.701Z,9.51
2022-10-04T04:52:52.717Z,9.46
2022-10-04T04:56:10.439Z,9.46
2022-10-04T04:59:18.461Z,9.45
2022-10-04T05:02:33.283Z,9.48
2022-10-04T05:05:39.295Z,9.43
2022-10-04T05:08:53.164Z,9.53
2022-10-04T05:12:09.617Z,9.54
2022-10-04T05:15:16.341Z,9.54
2022-10-04T05:18:33.282Z,9.55
2022-10-04T05:21:42.877Z,9.54
2022-10-04T05:24:51.555Z,9.58
2022-10-04T05:28:01.190Z,9.60
2022-10-04T05:31:35.702Z,9.63
2022-10-04T05:34:45.615Z,9.62
2022-10-04T05:38:18.582Z,9.65
2022-10-04T05:41:33.581Z,9.59
2022-10-04T05:44:51.280Z,9.55
2022-10-04T05:47:59.737Z,9.51
2022-10-04T05:51:18.582Z,9.55
2022-10-04T05:54:27.060Z,9.54
2022-10-04T05:57:43.639Z,9.54
2022-10-04T06:01:12.708Z,9.58
2022-10-04T06:04:47.154Z,9.64
2022-10-04T06:08:03.350Z,9.67
2022-10-04T06:11:18.157Z,9.73
2022-10-04T06:14:48.820Z,9.80
2022-10-04T06:18:19.731Z,9.87
2022-10-04T06:21:28.796Z,9.93
2022-10-04T06:24:38.632Z,10.01
2022-10-04T06:27:54.169Z,9.99
2022-10-04T06:31:24.455Z,10.00
2022-10-04T06:34:59.187Z,10.02
2022-10-04T06:38:26.925Z,10.03
2022-10-04T06:41:45.934Z,10.13
2022-10-04T06:45:08.267Z,10.14
2022-10-04T06:48:42.153Z,10.24
2022-10-04T06:52:17.616Z,10.27
2022-10-04T06:55:52.947Z,10.28
2022-10-04T06:59:31.317Z,10.30
2022-10-04T07:02:43.574Z,10.31
2022-10-04T07:05:54.960Z,10.38
2022-10-04T07:09:08.479Z,10.40
2022-10-04T07:12:17.775Z,10.47
2022-10-04T07:15:29.517Z,10.49
2022-10-04T07:18:40.294Z,10.58
2022-10-04T07:21:57.155Z,10.67
2022-10-04T07:25:16.603Z,10.77
2022-10-04T07:28:44.522Z,10.76
2022-10-04T07:31:54.931Z,10.80
2022-10-04T07:35:07.356Z,10.87
2022-10-04T07:38:23.114Z,10.98
2022-10-04T07:41:37.019Z,11.03
2022-10-04T07:44:45.965Z,11.06
2022-10-04T07:47:53.041Z,11.12
2022-10-04T07:51:09.696Z,11.15
2022-10-04T07:54:22.447Z,11.21
2022-10-04T07:57:35.749Z,11.28
2022-10-04T08:00:51.364Z,11.27
2022-10-04T08:04:21.642Z,11.27
2022-10-04T08:07:34.722Z,11.26
2022-10-04T08:10:50.121Z,11.37
2022-10-04T08:14:08.139Z,11.32
2022-10-04T08:17:22.902Z,11.36
2022-10-04T08:20:38.866Z,11.35
2022-10-04T08:23:56.107Z,11.42
2022-10-04T08:27:32.104Z,11.52
2022-10-04T08:30:59.443Z,11.72
2022-10-04T08:34:25.833Z,11.80
2022-10-04T08:37:38.711Z,11.87
2022-10-04T08:41:14.280Z,11.90
2022-10-04T08:45:00.873Z,11.82
2022-10-04T08:48:46.466Z,11.71
2022-10-04T08:52:37.246Z,11.76
2022-10-04T08:55:55.997Z,11.91
2022-10-04T08:59:27.262Z,12.06
2022-10-04T09:03:13.658Z,12.16
2022-10-04T09:06:46.652Z,12.36
2022-10-04T09:10:20.910Z,12.43
2022-10-04T09:13:46.308Z,12.47
2022-10-04T09:17:03.832Z,12.43
2022-10-04T09:20:39.895Z,12.41
2022-10-04T09:24:12.208Z,12.18
2022-10-04T09:27:58.584Z,12.10
2022-10-04T09:31:33.734Z,12.31
2022-10-04T09:35:07.391Z,12.44
2022-10-04T09:39:29.606Z,12.44
2022-10-04T09:43:08.050Z,12.36
2022-10-04T09:46:29.534Z,12.41
2022-10-04T09:50:07.442Z,12.56
2022-10-04T09:53:46.546Z,12.80
2022-10-04T09:57:09.281Z,13.04
2022-10-04T10:00:25.352Z,13.00
2022-10-04T10:04:03.374Z,13.05
2022-10-04T10:07:26.904Z,13.00
2022-10-04T10:10:57.592Z,12.98
2022-10-04T10:14:27.677Z,13.02
2022-10-04T10:17:45.380Z,13.07
2022-10-04T10:21:06.135Z,12.99
2022-10-04T10:24:31.703Z,13.11
2022-10-04T10:27:59.988Z,13.10
2022-10-04T10:31:47.095Z,13.27
2022-10-04T10:35:32.674Z,13.22
2022-10-04T10:38:55.245Z,13.32
2022-10-04T10:42:22.056Z,13.35
2022-10-04T10:45:47.373Z,13.33
2022-10-04T10:49:12.459Z,13.36
2022-10-04T10:52:51.969Z,13.23
2022-10-04T10:56:31.444Z,13.06
2022-10-04T11:00:30.584Z,12.92
2022-10-04T11:04:27.378Z,13.00
2022-10-04T11:07:56.617Z,13.19
2022-10-04T11:11:42.167Z,13.47
2022-10-04T11:15:33.234Z,13.60
2022-10-04T11:19:31.545Z,13.59
2022-10-04T11:23:28.237Z,13.71
2022-10-04T11:27:06.767Z,13.84
2022-10-04T11:30:24.925Z,13.79
2022-10-04T11:34:16.362Z,13.67
2022-10-04T11:37:35.936Z,13.56
2022-10-04T11:41:04.154Z,13.64
2022-10-04T11:44:33.838Z,13.95
2022-10-04T11:47:49.506Z,14.07
2022-10-04T11:51:22.063Z,14.02
2022-10-04T11:55:08.303Z,13.83
2022-10-04T11:58:27.104Z,13.80
2022-10-04T12:02:12.637Z,13.86
2022-10-04T12:05:28.754Z,13.91
2022-10-04T12:08:48.433Z,13.97
2022-10-04T12:12:40.145Z,13.82
2022-10-04T12:16:06.548Z,13.58
2022-10-04T12:19:37.539Z,13.47
2022-10-04T12:23:06.468Z,13.40
2022-10-04T12:26:40.778Z,13.41
2022-10-04T12:30:17.601Z,13.44
2022-10-04T12:33:36.133Z,13.52
2022-10-04T12:36:58.269Z,13.60
2022-10-04T12:40:22.836Z,13.68
2022-10-04T12:43:38.589Z,13.81
2022-10-04T12:46:59.016Z,13.91
2022-10-04T12:50:20.661Z,13.94
2022-10-04T12:53:36.980Z,13.84
2022-10-04T12:57:04.343Z,13.68
2022-10-04T13:00:20.206Z,13.55
2022-10-04T13:03:41.467Z,13.44
2022-10-04T13:07:06.336Z,13.38
2022-10-04T13:10:33.002Z,13.35
2022-10-04T13:14:11.209Z,13.39
2022-10-04T13:17:35.892Z,13.40
2022-10-04T13:20:52.567Z,13.42
2022-10-04T13:24:10.758Z,13.42
2022-10-04T13:27:21.292Z,13.43
2022-10-04T13:30:30.125Z,13.40
2022-10-04T13:33:44.468Z,13.38
2022-10-04T13:37:06.579Z,13.41
2022-10-04T13:40:47.617Z,13.46
2022-10-04T13:44:11.018Z,13.55
2022-10-04T13:47:37.383Z,13.62
2022-10-04T13:50:55.790Z,13.68
2022-10-04T13:54:27.408Z,13.77
2022-10-04T13:57:46.311Z,13.89
2022-10-04T14:01:18.449Z,14.08
2022-10-04T14:05:06.987Z,14.31
2022-10-04T14:08:37.808Z,14.41
2022-10-04T14:12:10.784Z,14.59
2022-10-04T14:16:03.267Z,14.66
2022-10-04T14:19:59.467Z,14.60
2022-10-04T14:23:26.663Z,14.51
2022-10-04T14:27:23.685Z,14.43
2022-10-04T14:30:43.135Z,14.25
2022-10-04T14:34:26.995Z,14.18
2022-10-04T14:38:03.533Z,14.14
2022-10-04T14:41:45.845Z,14.05
2022-10-04T14:45:13.477Z,13.95
2022-10-04T14:48:49.240Z,13.94
2022-10-04T14:52:08.967Z,13.92
2022-10-04T14:55:35.261Z,13.90
2022-10-04T14:58:53.340Z,13.88
2022-10-04T15:02:39.387Z,13.91
2022-10-04T15:06:07.163Z,13.88
2022-10-04T15:09:50.341Z,13.87
2022-10-04T15:13:11.167Z,13.86
2022-10-04T15:16:25.500Z,13.85
2022-10-04T15:19:36.917Z,13.82
2022-10-04T15:22:50.938Z,13.83
2022-10-04T15:26:01.285Z,13.79
2022-10-04T15:29:23.974Z,13.77
2022-10-04T15:32:38.381Z,13.72
2022-10-04T15:36:07.321Z,13.72
2022-10-04T15:39:45.693Z,13.72
2022-10-04T15:43:07.595Z,13.71
2022-10-04T15:46:47.911Z,13.67
2022-10-04T15:50:24.188Z,13.60
2022-10-04T15:53:48.698Z,13.55
2022-10-04T15:56:59.443Z,13.46
2022-10-04T16:00:15.587Z,13.43
2022-10-04T16:03:32.764Z,13.40
2022-10-04T16:06:49.392Z,13.36
2022-10-04T16:10:07.400Z,13.32
2022-10-04T16:13:48.795Z,13.28
2022-10-04T16:17:17.724Z,13.22
2022-10-04T16:21:16.300Z,13.16
2022-10-04T16:24:45.928Z,13.07
2022-10-04T16:28:08.296Z,13.00
2022-10-04T16:31:40.986Z,12.90
2022-10-04T16:35:00.454Z,12.81
2022-10-04T16:38:22.717Z,12.72
2022-10-04T16:41:37.087Z,12.65
2022-10-04T16:44:55.544Z,12.59
2022-10-04T16:48:06.080Z,12.53
2022-10-04T16:51:42.483Z,12.50
2022-10-04T16:55:24.195Z,12.40
2022-10-04T16:58:55.878Z,12.35
2022-10-04T17:02:25.415Z,12.28
2022-10-04T17:06:03.338Z,12.21
2022-10-04T17:09:24.234Z,12.13
2022-10-04T17:12:39.462Z,12.04
2022-10-04T17:15:52.578Z,11.93
2022-10-04T17:19:20.845Z,11.86
2022-10-04T17:22:39.741Z,11.78
2022-10-04T17:26:03.179Z,11.73
2022-10-04T17:29:25.747Z,11.64
2022-10-04T17:32:47.873Z,11.57
2022-10-04T17:36:23.819Z,11.52
2022-10-04T17:39:46.645Z,11.50
2022-10-04T17:43:05.523Z,11.46
2022-10-04T17:46:23.734Z,11.45
2022-10-04T17:49:56.210Z,11.42
2022-10-04T17:53:23.427Z,11.41
2022-10-04T17:56:36.659Z,11.39
2022-10-04T17:59:50.457Z,11.35
2022-10-04T18:03:07.437Z,11.31
2022-10-04T18:06:23.224Z,11.24
2022-10-04T18:09:35.861Z,11.22
2022-10-04T18:12:49.625Z,11.19
2022-10-04T18:16:06.255Z,11.16
2022-10-04T18:19:39.321Z,11.10
2022-10-04T18:22:50.120Z,11.02
2022-10-04T18:26:01.606Z,10.93
2022-10-04T18:29:11.252Z,10.87
2022-10-04T18:32:36.058Z,10.86
2022-10-04T18:35:55.284Z,10.85
2022-10-04T18:39:06.716Z,10.84
2022-10-04T18:42:23.717Z,10.87
2022-10-04T18:45:32.160Z,10.81
2022-10-04T18:48:48.090Z,10.72
2022-10-04T18:52:07.553Z,10.64
2022-10-04T18:56:11.639Z,10.60
2022-10-04T18:59:43.381Z,10.52
2022-10-04T19:02:57.904Z,10.47
2022-10-04T19:06:14.972Z,10.43
2022-10-04T19:09:29.659Z,10.44
2022-10-04T19:12:46.475Z,10.43
2022-10-04T19:16:17.618Z,10.40
2022-10-04T19:19:42.753Z,10.33
2022-10-04T19:23:00.951Z,10.28
2022-10-04T19:26:32.669Z,10.19
2022-10-04T19:29:55.306Z,10.12
2022-10-04T19:33:16.755Z,10.08
2022-10-04T19:36:34.078Z,10.05
2022-10-04T19:39:55.014Z,10.00
2022-10-04T19:43:06.992Z,9.95
2022-10-04T19:46:27.169Z,9.94
2022-10-04T19:49:45.481Z,9.91
2022-10-04T19:52:56.298Z,9.87
2022-10-04T19:56:09.238Z,9.85
2022-10-04T19:59:21.183Z,9.86
2022-10-04T20:02:26.924Z,9.86
2022-10-04T20:05:33.543Z,9.83
2022-10-04T20:09:02.263Z,9.82
2022-10-04T20:12:33.830Z,9.80
2022-10-04T20:15:49.425Z,9.77
2022-10-04T20:19:03.603Z,9.76
2022-10-04T20:22:54.585Z,9.79
2022-10-04T20:26:06.624Z,9.73
2022-10-04T20:29:14.985Z,9.70
2022-10-04T20:33:09.380Z,9.67
2022-10-04T20:36:35.725Z,9.57
2022-10-04T20:40:03.655Z,9.54
2022-10-04T20:43:28.107Z,9.51
2022-10-04T20:46:43.295Z,9.47
2022-10-04T20:49:49.629Z,9.47
2022-10-04T20:52:59.047Z,9.47
2022-10-04T20:56:27.494Z,9.50
2022-10-04T20:59:34.347Z,9.47
2022-10-04T21:02:43.614Z,9.47
2022-10-04T21:06:03.604Z,9.47
2022-10-04T21:09:09.303Z,9.47
2022-10-04T21:12:33.973Z,9.50
2022-10-04T21:15:39.581Z,9.51
2022-10-04T21:18:48.867Z,9.51
2022-10-04T21:21:54.459Z,9.50
2022-10-04T21:25:03.968Z,9.52
2022-10-04T21:28:37.582Z,9.56
2022-10-04T21:31:44.026Z,9.52
2022-10-04T21:34:54.414Z,9.48
2022-10-04T21:38:03.164Z,9.47
2022-10-04T21:41:09.322Z,9.49
2022-10-04T21:44:15.847Z,9.48
2022-10-04T21:47:21.984Z,9.45
2022-10-04T21:50:31.196Z,9.44
2022-10-04T21:53:36.784Z,9.40
2022-10-04T21:56:43.781Z,9.37
2022-10-04T21:59:50.463Z,9.34
2022-10-04T22:02:57.121Z,9.28
2022-10-04T22:06:06.752Z,9.25
2022-10-04T22:09:13.539Z,9.19
2022-10-04T22:12:19.406Z,9.16
2022-10-04T22:15:29.837Z,9.13
2022-10-04T22:18:36.214Z,9.08
2022-10-04T22:21:45.658Z,9.02
2022-10-04T22:24:51.226Z,9.00
2022-10-04T22:27:58.243Z,8.96
2022-10-04T22:31:03.942Z,8.95
2022-10-04T22:34:19.456Z,8.95
2022-10-04T22:37:28.107Z,8.94
2022-10-04T22:40:34.968Z,8.91
2022-10-04T22:43:40.642Z,8.89
2022-10-04T22:46:50.739Z,8.87
2022-10-04T22:49:57.703Z,8.86
2022-10-04T22:53:16.644Z,8.83
2022-10-04T22:56:22.196Z,8.79
2022-10-04T22:59:38.257Z,8.77
2022-10-04T23:02:44.378Z,8.76
2022-10-04T23:05:51.022Z,8.74
2022-10-04T23:08:59.761Z,8.73
2022-10-04T23:12:10.384Z,8.71
2022-10-04T23:15:21.944Z,8.70
2022-10-04T23:18:29.533Z,8.67
2022-10-04T23:21:37.961Z,8.63
2022-10-04T23:24:47.934Z,8.60
2022-10-04T23:27:53.604Z,8.57
2022-10-04T23:31:06.750Z,8.57
2022-10-04T23:34:19.428Z,8.55
2022-10-04T23:37:28.271Z,8.52
2022-10-04T23:40:37.141Z,8.54
2022-10-04T23:43:44.092Z,8.57
2022-10-04T23:46:49.718Z,8.60
2022-10-04T23:49:56.743Z,8.60
2022-10-04T23:53:06.704Z,8.60
2022-10-04T23:56:22.311Z,8.62
2022-10-04T23:59:28.893Z,8.64
